sensor_id;sensor_type;location;lat;lon;timestamp;P1;durP1;ratioP1;P2;durP2;ratioP2
15228;SDS011;7717;47.792;12.076;2022-08-25T00:00:36;6.20;;;5.70;;
15228;SDS011;7717;47.792;12.076;2022-08-25T00:03:04;6.03;;;5.50;;
15228;SDS011;7717;47.792;12.076;2022-08-25T00:05:29;6.17;;;5.57;;
15228;SDS011;7717;47.792;12.076;2022-08-25T00:07:55;7.47;;;5.93;;
15228;SDS011;7717;47.792;12.076;2022-08-25T00:10:21;7.03;;;6.13;;
15228;SDS011;7717;47.792;12.076;2022-08-25T00:12:46;6.90;;;6.03;;
15228;SDS011;7717;47.792;12.076;2022-08-25T00:15:11;6.17;;;5.63;;
15228;SDS011;7717;47.792;12.076;2022-08-25T00:17:37;6.30;;;5.73;;
15228;SDS011;7717;47.792;12.076;2022-08-25T00:20:03;6.73;;;5.70;;
15228;SDS011;7717;47.792;12.076;2022-08-25T00:22:29;6.87;;;5.57;;
15228;SDS011;7717;47.792;12.076;2022-08-25T00:24:54;6.00;;;5.50;;
15228;SDS011;7717;47.792;12.076;2022-08-25T00:27:19;6.30;;;5.80;;
15228;SDS011;7717;47.792;12.076;2022-08-25T00:29:46;6.23;;;5.63;;
15228;SDS011;7717;47.792;12.076;2022-08-25T00:32:11;6.07;;;5.57;;
15228;SDS011;7717;47.792;12.076;2022-08-25T00:34:37;6.10;;;5.57;;
15228;SDS011;7717;47.792;12.076;2022-08-25T00:37:03;6.90;;;5.77;;
15228;SDS011;7717;47.792;12.076;2022-08-25T00:39:31;5.70;;;5.30;;
15228;SDS011;7717;47.792;12.076;2022-08-25T00:41:59;6.97;;;5.47;;
15228;SDS011;7717;47.792;12.076;2022-08-25T00:44:25;6.07;;;5.47;;
15228;SDS011;7717;47.792;12.076;2022-08-25T00:46:52;6.50;;;5.77;;
15228;SDS011;7717;47.792;12.076;2022-08-25T00:49:19;8.47;;;5.50;;
15228;SDS011;7717;47.792;12.076;2022-08-25T00:51:59;6.30;;;5.73;;
15228;SDS011;7717;47.792;12.076;2022-08-25T00:54:33;5.70;;;5.20;;
15228;SDS011;7717;47.792;12.076;2022-08-25T00:56:59;6.27;;;5.77;;
15228;SDS011;7717;47.792;12.076;2022-08-25T00:59:25;5.73;;;5.13;;
15228;SDS011;7717;47.792;12.076;2022-08-25T01:01:51;6.20;;;5.70;;
15228;SDS011;7717;47.792;12.076;2022-08-25T01:04:16;5.90;;;5.40;;
15228;SDS011;7717;47.792;12.076;2022-08-25T01:06:42;6.97;;;6.27;;
15228;SDS011;7717;47.792;12.076;2022-08-25T01:09:08;8.77;;;5.90;;
15228;SDS011;7717;47.792;12.076;2022-08-25T01:11:34;6.03;;;5.57;;
15228;SDS011;7717;47.792;12.076;2022-08-25T01:13:59;6.57;;;5.97;;
15228;SDS011;7717;47.792;12.076;2022-08-25T01:16:27;6.53;;;5.93;;
15228;SDS011;7717;47.792;12.076;2022-08-25T01:18:53;5.70;;;5.20;;
15228;SDS011;7717;47.792;12.076;2022-08-25T01:21:21;7.00;;;5.33;;
15228;SDS011;7717;47.792;12.076;2022-08-25T01:23:47;5.73;;;5.23;;
15228;SDS011;7717;47.792;12.076;2022-08-25T01:26:17;6.17;;;5.57;;
15228;SDS011;7717;47.792;12.076;2022-08-25T01:28:44;6.50;;;5.80;;
15228;SDS011;7717;47.792;12.076;2022-08-25T01:31:28;7.13;;;5.23;;
15228;SDS011;7717;47.792;12.076;2022-08-25T01:33:54;5.97;;;5.47;;
15228;SDS011;7717;47.792;12.076;2022-08-25T01:36:20;5.87;;;5.47;;
15228;SDS011;7717;47.792;12.076;2022-08-25T01:38:46;6.00;;;5.50;;
15228;SDS011;7717;47.792;12.076;2022-08-25T01:41:11;7.03;;;6.30;;
15228;SDS011;7717;47.792;12.076;2022-08-25T01:43:37;6.07;;;5.57;;
15228;SDS011;7717;47.792;12.076;2022-08-25T01:46:02;6.40;;;5.80;;
15228;SDS011;7717;47.792;12.076;2022-08-25T01:48:27;6.77;;;6.07;;
15228;SDS011;7717;47.792;12.076;2022-08-25T01:50:53;8.17;;;6.20;;
15228;SDS011;7717;47.792;12.076;2022-08-25T01:53:21;7.30;;;6.63;;
15228;SDS011;7717;47.792;12.076;2022-08-25T01:55:46;6.93;;;6.33;;
15228;SDS011;7717;47.792;12.076;2022-08-25T01:58:27;5.83;;;5.33;;
15228;SDS011;7717;47.792;12.076;2022-08-25T02:00:53;6.20;;;5.70;;
15228;SDS011;7717;47.792;12.076;2022-08-25T02:03:21;6.30;;;5.80;;
15228;SDS011;7717;47.792;12.076;2022-08-25T02:05:47;7.03;;;6.33;;
15228;SDS011;7717;47.792;12.076;2022-08-25T02:08:14;9.37;;;6.10;;
15228;SDS011;7717;47.792;12.076;2022-08-25T02:10:39;6.60;;;6.10;;
15228;SDS011;7717;47.792;12.076;2022-08-25T02:13:05;6.20;;;5.70;;
15228;SDS011;7717;47.792;12.076;2022-08-25T02:15:30;6.57;;;5.97;;
15228;SDS011;7717;47.792;12.076;2022-08-25T02:17:56;6.93;;;6.20;;
15228;SDS011;7717;47.792;12.076;2022-08-25T02:20:22;8.30;;;7.17;;
15228;SDS011;7717;47.792;12.076;2022-08-25T02:22:49;8.23;;;6.60;;
15228;SDS011;7717;47.792;12.076;2022-08-25T02:25:15;7.07;;;6.37;;
15228;SDS011;7717;47.792;12.076;2022-08-25T02:27:41;6.87;;;6.03;;
15228;SDS011;7717;47.792;12.076;2022-08-25T02:30:06;6.70;;;6.17;;
15228;SDS011;7717;47.792;12.076;2022-08-25T02:32:31;7.17;;;6.57;;
15228;SDS011;7717;47.792;12.076;2022-08-25T02:34:57;6.50;;;5.90;;
15228;SDS011;7717;47.792;12.076;2022-08-25T02:37:23;6.63;;;6.03;;
15228;SDS011;7717;47.792;12.076;2022-08-25T02:39:48;8.03;;;6.57;;
15228;SDS011;7717;47.792;12.076;2022-08-25T02:42:14;6.53;;;6.03;;
15228;SDS011;7717;47.792;12.076;2022-08-25T02:44:39;7.07;;;6.43;;
15228;SDS011;7717;47.792;12.076;2022-08-25T02:47:05;6.63;;;6.03;;
15228;SDS011;7717;47.792;12.076;2022-08-25T02:49:30;7.13;;;6.50;;
15228;SDS011;7717;47.792;12.076;2022-08-25T02:51:56;6.67;;;6.07;;
15228;SDS011;7717;47.792;12.076;2022-08-25T02:54:23;7.27;;;5.50;;
15228;SDS011;7717;47.792;12.076;2022-08-25T02:56:50;6.40;;;5.70;;
15228;SDS011;7717;47.792;12.076;2022-08-25T02:59:15;8.20;;;6.00;;
15228;SDS011;7717;47.792;12.076;2022-08-25T03:01:42;6.63;;;6.03;;
15228;SDS011;7717;47.792;12.076;2022-08-25T03:04:07;6.43;;;5.67;;
15228;SDS011;7717;47.792;12.076;2022-08-25T03:06:32;6.67;;;6.07;;
15228;SDS011;7717;47.792;12.076;2022-08-25T03:08:58;6.13;;;5.63;;
15228;SDS011;7717;47.792;12.076;2022-08-25T03:11:23;8.93;;;6.50;;
15228;SDS011;7717;47.792;12.076;2022-08-25T03:13:50;10.37;;;6.17;;
15228;SDS011;7717;47.792;12.076;2022-08-25T03:16:15;6.87;;;6.27;;
15228;SDS011;7717;47.792;12.076;2022-08-25T03:18:41;7.03;;;6.33;;
15228;SDS011;7717;47.792;12.076;2022-08-25T03:21:06;6.67;;;6.03;;
15228;SDS011;7717;47.792;12.076;2022-08-25T03:23:32;6.50;;;5.90;;
15228;SDS011;7717;47.792;12.076;2022-08-25T03:25:57;6.53;;;5.83;;
15228;SDS011;7717;47.792;12.076;2022-08-25T03:28:41;6.50;;;6.00;;
15228;SDS011;7717;47.792;12.076;2022-08-25T03:31:07;7.33;;;6.63;;
15228;SDS011;7717;47.792;12.076;2022-08-25T03:33:32;6.53;;;5.93;;
15228;SDS011;7717;47.792;12.076;2022-08-25T03:35:58;6.83;;;6.17;;
15228;SDS011;7717;47.792;12.076;2022-08-25T03:38:24;6.93;;;6.33;;
15228;SDS011;7717;47.792;12.076;2022-08-25T03:40:49;6.50;;;5.90;;
15228;SDS011;7717;47.792;12.076;2022-08-25T03:43:15;6.47;;;5.63;;
15228;SDS011;7717;47.792;12.076;2022-08-25T03:45:43;5.93;;;5.43;;
15228;SDS011;7717;47.792;12.076;2022-08-25T03:48:09;6.37;;;5.77;;
15228;SDS011;7717;47.792;12.076;2022-08-25T03:50:34;6.07;;;5.27;;
15228;SDS011;7717;47.792;12.076;2022-08-25T03:53:03;6.03;;;5.50;;
15228;SDS011;7717;47.792;12.076;2022-08-25T03:55:28;6.73;;;6.13;;
15228;SDS011;7717;47.792;12.076;2022-08-25T03:57:53;6.37;;;5.80;;
15228;SDS011;7717;47.792;12.076;2022-08-25T04:00:19;7.00;;;6.37;;
15228;SDS011;7717;47.792;12.076;2022-08-25T04:02:44;6.93;;;6.33;;
15228;SDS011;7717;47.792;12.076;2022-08-25T04:05:10;6.43;;;5.83;;
15228;SDS011;7717;47.792;12.076;2022-08-25T04:07:35;6.50;;;5.90;;
15228;SDS011;7717;47.792;12.076;2022-08-25T04:10:02;5.43;;;5.03;;
15228;SDS011;7717;47.792;12.076;2022-08-25T04:12:27;7.20;;;5.80;;
15228;SDS011;7717;47.792;12.076;2022-08-25T04:14:52;5.97;;;5.43;;
15228;SDS011;7717;47.792;12.076;2022-08-25T04:17:17;7.03;;;6.10;;
15228;SDS011;7717;47.792;12.076;2022-08-25T04:19:43;6.53;;;6.03;;
15228;SDS011;7717;47.792;12.076;2022-08-25T04:22:09;5.90;;;5.27;;
15228;SDS011;7717;47.792;12.076;2022-08-25T04:24:35;6.13;;;5.60;;
15228;SDS011;7717;47.792;12.076;2022-08-25T04:27:00;6.30;;;5.80;;
15228;SDS011;7717;47.792;12.076;2022-08-25T04:29:25;6.10;;;5.60;;
15228;SDS011;7717;47.792;12.076;2022-08-25T04:31:51;6.93;;;6.33;;
15228;SDS011;7717;47.792;12.076;2022-08-25T04:34:17;6.23;;;5.67;;
15228;SDS011;7717;47.792;12.076;2022-08-25T04:36:42;7.10;;;6.47;;
15228;SDS011;7717;47.792;12.076;2022-08-25T04:39:08;6.33;;;5.83;;
15228;SDS011;7717;47.792;12.076;2022-08-25T04:41:33;7.03;;;6.40;;
15228;SDS011;7717;47.792;12.076;2022-08-25T04:43:59;6.13;;;5.60;;
15228;SDS011;7717;47.792;12.076;2022-08-25T04:46:27;12.47;;;8.53;;
15228;SDS011;7717;47.792;12.076;2022-08-25T04:48:53;6.37;;;5.63;;
15228;SDS011;7717;47.792;12.076;2022-08-25T04:51:20;6.30;;;5.80;;
15228;SDS011;7717;47.792;12.076;2022-08-25T04:53:47;6.10;;;5.60;;
15228;SDS011;7717;47.792;12.076;2022-08-25T04:56:14;6.73;;;6.17;;
15228;SDS011;7717;47.792;12.076;2022-08-25T04:58:42;6.13;;;5.57;;
15228;SDS011;7717;47.792;12.076;2022-08-25T05:01:08;6.67;;;6.13;;
15228;SDS011;7717;47.792;12.076;2022-08-25T05:03:34;6.20;;;5.70;;
15228;SDS011;7717;47.792;12.076;2022-08-25T05:05:59;6.07;;;5.23;;
15228;SDS011;7717;47.792;12.076;2022-08-25T05:08:25;6.43;;;5.90;;
15228;SDS011;7717;47.792;12.076;2022-08-25T05:10:50;6.40;;;5.80;;
15228;SDS011;7717;47.792;12.076;2022-08-25T05:13:18;6.47;;;5.87;;
15228;SDS011;7717;47.792;12.076;2022-08-25T05:15:49;6.43;;;5.93;;
15228;SDS011;7717;47.792;12.076;2022-08-25T05:18:15;6.63;;;5.60;;
15228;SDS011;7717;47.792;12.076;2022-08-25T05:20:41;6.30;;;5.80;;
15228;SDS011;7717;47.792;12.076;2022-08-25T05:23:06;6.93;;;6.23;;
15228;SDS011;7717;47.792;12.076;2022-08-25T05:25:31;5.83;;;5.40;;
15228;SDS011;7717;47.792;12.076;2022-08-25T05:27:57;6.17;;;5.67;;
15228;SDS011;7717;47.792;12.076;2022-08-25T05:30:22;5.53;;;5.03;;
15228;SDS011;7717;47.792;12.076;2022-08-25T05:32:50;5.57;;;5.07;;
15228;SDS011;7717;47.792;12.076;2022-08-25T05:35:16;6.40;;;5.90;;
15228;SDS011;7717;47.792;12.076;2022-08-25T05:37:41;6.80;;;5.23;;
15228;SDS011;7717;47.792;12.076;2022-08-25T05:40:07;6.20;;;5.70;;
15228;SDS011;7717;47.792;12.076;2022-08-25T05:42:33;8.03;;;6.13;;
15228;SDS011;7717;47.792;12.076;2022-08-25T05:44:58;8.03;;;7.23;;
15228;SDS011;7717;47.792;12.076;2022-08-25T05:47:23;6.97;;;6.27;;
15228;SDS011;7717;47.792;12.076;2022-08-25T05:49:48;6.63;;;6.00;;
15228;SDS011;7717;47.792;12.076;2022-08-25T05:52:14;5.40;;;5.00;;
15228;SDS011;7717;47.792;12.076;2022-08-25T05:54:39;5.43;;;5.03;;
15228;SDS011;7717;47.792;12.076;2022-08-25T05:57:05;5.63;;;5.23;;
15228;SDS011;7717;47.792;12.076;2022-08-25T05:59:30;5.40;;;4.93;;
15228;SDS011;7717;47.792;12.076;2022-08-25T06:01:56;5.23;;;4.83;;
15228;SDS011;7717;47.792;12.076;2022-08-25T06:04:39;6.90;;;6.20;;
15228;SDS011;7717;47.792;12.076;2022-08-25T06:07:05;7.37;;;6.67;;
15228;SDS011;7717;47.792;12.076;2022-08-25T06:09:30;8.70;;;8.00;;
15228;SDS011;7717;47.792;12.076;2022-08-25T06:11:55;9.13;;;7.43;;
15228;SDS011;7717;47.792;12.076;2022-08-25T06:14:21;9.43;;;8.60;;
15228;SDS011;7717;47.792;12.076;2022-08-25T06:16:46;9.30;;;8.40;;
15228;SDS011;7717;47.792;12.076;2022-08-25T06:19:15;8.77;;;8.07;;
15228;SDS011;7717;47.792;12.076;2022-08-25T06:21:40;7.50;;;6.80;;
15228;SDS011;7717;47.792;12.076;2022-08-25T06:24:06;9.03;;;7.50;;
15228;SDS011;7717;47.792;12.076;2022-08-25T06:26:32;8.13;;;6.80;;
15228;SDS011;7717;47.792;12.076;2022-08-25T06:28:57;7.20;;;6.50;;
15228;SDS011;7717;47.792;12.076;2022-08-25T06:31:23;6.60;;;6.10;;
15228;SDS011;7717;47.792;12.076;2022-08-25T06:33:48;7.47;;;6.80;;
15228;SDS011;7717;47.792;12.076;2022-08-25T06:36:14;7.10;;;6.50;;
15228;SDS011;7717;47.792;12.076;2022-08-25T06:38:39;7.30;;;6.70;;
15228;SDS011;7717;47.792;12.076;2022-08-25T06:41:05;6.43;;;5.93;;
15228;SDS011;7717;47.792;12.076;2022-08-25T06:43:31;6.60;;;6.00;;
15228;SDS011;7717;47.792;12.076;2022-08-25T06:45:57;6.40;;;5.80;;
15228;SDS011;7717;47.792;12.076;2022-08-25T06:48:22;6.80;;;6.20;;
15228;SDS011;7717;47.792;12.076;2022-08-25T06:50:47;5.63;;;5.23;;
15228;SDS011;7717;47.792;12.076;2022-08-25T06:53:13;6.73;;;6.13;;
15228;SDS011;7717;47.792;12.076;2022-08-25T06:55:38;6.80;;;5.87;;
15228;SDS011;7717;47.792;12.076;2022-08-25T06:58:04;6.40;;;5.90;;
15228;SDS011;7717;47.792;12.076;2022-08-25T07:00:29;6.10;;;5.60;;
15228;SDS011;7717;47.792;12.076;2022-08-25T07:02:54;6.37;;;5.87;;
15228;SDS011;7717;47.792;12.076;2022-08-25T07:05:20;6.17;;;5.63;;
15228;SDS011;7717;47.792;12.076;2022-08-25T07:07:45;5.90;;;5.50;;
15228;SDS011;7717;47.792;12.076;2022-08-25T07:10:11;6.00;;;5.50;;
15228;SDS011;7717;47.792;12.076;2022-08-25T07:12:36;6.40;;;5.90;;
15228;SDS011;7717;47.792;12.076;2022-08-25T07:15:02;5.67;;;5.17;;
15228;SDS011;7717;47.792;12.076;2022-08-25T07:17:27;8.03;;;5.33;;
15228;SDS011;7717;47.792;12.076;2022-08-25T07:19:53;6.80;;;6.13;;
15228;SDS011;7717;47.792;12.076;2022-08-25T07:22:18;5.93;;;5.43;;
15228;SDS011;7717;47.792;12.076;2022-08-25T07:24:43;6.37;;;5.77;;
15228;SDS011;7717;47.792;12.076;2022-08-25T07:27:08;5.43;;;5.03;;
15228;SDS011;7717;47.792;12.076;2022-08-25T07:29:34;6.17;;;5.57;;
15228;SDS011;7717;47.792;12.076;2022-08-25T07:32:02;6.00;;;5.40;;
15228;SDS011;7717;47.792;12.076;2022-08-25T07:34:28;6.40;;;5.70;;
15228;SDS011;7717;47.792;12.076;2022-08-25T07:37:12;6.07;;;5.63;;
15228;SDS011;7717;47.792;12.076;2022-08-25T07:39:37;6.07;;;5.57;;
15228;SDS011;7717;47.792;12.076;2022-08-25T07:42:03;5.90;;;5.30;;
15228;SDS011;7717;47.792;12.076;2022-08-25T07:44:29;5.97;;;5.03;;
15228;SDS011;7717;47.792;12.076;2022-08-25T07:46:55;6.07;;;5.57;;
15228;SDS011;7717;47.792;12.076;2022-08-25T07:49:21;6.67;;;5.97;;
15228;SDS011;7717;47.792;12.076;2022-08-25T07:51:46;7.00;;;5.20;;
15228;SDS011;7717;47.792;12.076;2022-08-25T07:54:12;8.10;;;5.60;;
15228;SDS011;7717;47.792;12.076;2022-08-25T07:56:38;6.40;;;5.90;;
15228;SDS011;7717;47.792;12.076;2022-08-25T07:59:06;5.90;;;5.40;;
15228;SDS011;7717;47.792;12.076;2022-08-25T08:01:31;6.07;;;5.53;;
15228;SDS011;7717;47.792;12.076;2022-08-25T08:03:56;6.03;;;5.57;;
15228;SDS011;7717;47.792;12.076;2022-08-25T08:06:22;6.87;;;6.30;;
15228;SDS011;7717;47.792;12.076;2022-08-25T08:08:48;6.53;;;5.87;;
15228;SDS011;7717;47.792;12.076;2022-08-25T08:11:24;5.90;;;5.40;;
15228;SDS011;7717;47.792;12.076;2022-08-25T08:13:50;7.80;;;6.20;;
15228;SDS011;7717;47.792;12.076;2022-08-25T08:16:16;7.60;;;6.90;;
15228;SDS011;7717;47.792;12.076;2022-08-25T08:18:42;7.03;;;6.53;;
15228;SDS011;7717;47.792;12.076;2022-08-25T08:21:11;6.53;;;6.03;;
15228;SDS011;7717;47.792;12.076;2022-08-25T08:23:37;5.30;;;4.80;;
15228;SDS011;7717;47.792;12.076;2022-08-25T08:26:02;6.00;;;5.40;;
15228;SDS011;7717;47.792;12.076;2022-08-25T08:28:27;6.20;;;5.70;;
15228;SDS011;7717;47.792;12.076;2022-08-25T08:30:52;5.83;;;5.33;;
15228;SDS011;7717;47.792;12.076;2022-08-25T08:33:18;5.95;;;5.45;;
15228;SDS011;7717;47.792;12.076;2022-08-25T08:35:43;5.65;;;5.05;;
15228;SDS011;7717;47.792;12.076;2022-08-25T08:38:08;6.55;;;5.82;;
15228;SDS011;7717;47.792;12.076;2022-08-25T08:40:35;6.82;;;6.22;;
15228;SDS011;7717;47.792;12.076;2022-08-25T08:43:07;6.03;;;5.40;;
15228;SDS011;7717;47.792;12.076;2022-08-25T08:45:37;6.00;;;5.25;;
15228;SDS011;7717;47.792;12.076;2022-08-25T08:48:17;7.07;;;6.15;;
15228;SDS011;7717;47.792;12.076;2022-08-25T08:51:05;7.13;;;6.53;;
15228;SDS011;7717;47.792;12.076;2022-08-25T08:53:40;6.75;;;6.18;;
15228;SDS011;7717;47.792;12.076;2022-08-25T08:56:14;6.47;;;5.97;;
15228;SDS011;7717;47.792;12.076;2022-08-25T08:58:45;5.53;;;5.13;;
15228;SDS011;7717;47.792;12.076;2022-08-25T09:01:12;6.47;;;5.97;;
15228;SDS011;7717;47.792;12.076;2022-08-25T09:03:40;6.43;;;5.90;;
15228;SDS011;7717;47.792;12.076;2022-08-25T09:06:08;6.18;;;5.68;;
15228;SDS011;7717;47.792;12.076;2022-08-25T09:08:35;5.47;;;5.07;;
15228;SDS011;7717;47.792;12.076;2022-08-25T09:11:44;6.38;;;5.88;;
15228;SDS011;7717;47.792;12.076;2022-08-25T09:21:46;6.05;;;5.65;;
15228;SDS011;7717;47.792;12.076;2022-08-25T09:27:05;5.25;;;4.85;;
15228;SDS011;7717;47.792;12.076;2022-08-25T09:30:10;5.63;;;5.10;;
15228;SDS011;7717;47.792;12.076;2022-08-25T09:32:28;5.25;;;4.85;;
15228;SDS011;7717;47.792;12.076;2022-08-25T09:34:56;5.90;;;5.18;;
15228;SDS011;7717;47.792;12.076;2022-08-25T09:37:22;5.55;;;5.13;;
15228;SDS011;7717;47.792;12.076;2022-08-25T09:39:48;6.30;;;5.90;;
15228;SDS011;7717;47.792;12.076;2022-08-25T09:42:13;6.07;;;5.57;;
15228;SDS011;7717;47.792;12.076;2022-08-25T09:44:40;5.13;;;4.72;;
15228;SDS011;7717;47.792;12.076;2022-08-25T09:49:43;5.60;;;5.20;;
15228;SDS011;7717;47.792;12.076;2022-08-25T09:52:42;5.43;;;4.93;;
15228;SDS011;7717;47.792;12.076;2022-08-25T09:57:36;5.53;;;5.03;;
15228;SDS011;7717;47.792;12.076;2022-08-25T10:00:34;5.45;;;5.05;;
15228;SDS011;7717;47.792;12.076;2022-08-25T10:03:01;5.25;;;4.82;;
15228;SDS011;7717;47.792;12.076;2022-08-25T10:05:26;5.05;;;4.65;;
15228;SDS011;7717;47.792;12.076;2022-08-25T10:07:59;4.65;;;4.35;;
15228;SDS011;7717;47.792;12.076;2022-08-25T10:10:45;6.00;;;5.40;;
15228;SDS011;7717;47.792;12.076;2022-08-25T10:13:18;4.78;;;4.35;;
15228;SDS011;7717;47.792;12.076;2022-08-25T10:15:47;4.72;;;4.32;;
15228;SDS011;7717;47.792;12.076;2022-08-25T10:18:27;4.95;;;4.65;;
15228;SDS011;7717;47.792;12.076;2022-08-25T10:23:28;5.47;;;4.97;;
15228;SDS011;7717;47.792;12.076;2022-08-25T10:25:54;4.75;;;4.38;;
15228;SDS011;7717;47.792;12.076;2022-08-25T10:28:29;4.50;;;4.15;;
15228;SDS011;7717;47.792;12.076;2022-08-25T10:36:42;4.70;;;4.40;;
15228;SDS011;7717;47.792;12.076;2022-08-25T10:41:33;4.13;;;3.83;;
15228;SDS011;7717;47.792;12.076;2022-08-25T10:44:23;3.58;;;3.38;;
15228;SDS011;7717;47.792;12.076;2022-08-25T10:49:55;4.07;;;3.78;;
15228;SDS011;7717;47.792;12.076;2022-08-25T10:52:29;4.05;;;3.67;;
15228;SDS011;7717;47.792;12.076;2022-08-25T10:55:00;3.58;;;3.38;;
15228;SDS011;7717;47.792;12.076;2022-08-25T10:59:57;3.42;;;3.22;;
15228;SDS011;7717;47.792;12.076;2022-08-25T11:07:48;3.15;;;2.92;;
15228;SDS011;7717;47.792;12.076;2022-08-25T11:10:36;3.60;;;3.17;;
15228;SDS011;7717;47.792;12.076;2022-08-25T11:13:05;3.38;;;3.17;;
15228;SDS011;7717;47.792;12.076;2022-08-25T11:15:37;3.05;;;2.85;;
15228;SDS011;7717;47.792;12.076;2022-08-25T11:18:10;2.97;;;2.78;;
15228;SDS011;7717;47.792;12.076;2022-08-25T11:23:19;3.05;;;2.85;;
15228;SDS011;7717;47.792;12.076;2022-08-25T11:26:08;3.10;;;2.78;;
15228;SDS011;7717;47.792;12.076;2022-08-25T11:31:20;2.90;;;2.70;;
15228;SDS011;7717;47.792;12.076;2022-08-25T11:33:45;3.63;;;2.88;;
15228;SDS011;7717;47.792;12.076;2022-08-25T11:36:17;3.67;;;2.92;;
15228;SDS011;7717;47.792;12.076;2022-08-25T11:38:57;4.43;;;2.30;;
15228;SDS011;7717;47.792;12.076;2022-08-25T11:52:02;2.80;;;2.65;;
15228;SDS011;7717;47.792;12.076;2022-08-25T11:54:33;3.25;;;3.00;;
15228;SDS011;7717;47.792;12.076;2022-08-25T11:57:22;3.20;;;2.92;;
15228;SDS011;7717;47.792;12.076;2022-08-25T12:08:05;3.40;;;3.13;;
15228;SDS011;7717;47.792;12.076;2022-08-25T12:13:26;5.40;;;2.90;;
15228;SDS011;7717;47.792;12.076;2022-08-25T12:16:01;3.13;;;2.92;;
15228;SDS011;7717;47.792;12.076;2022-08-25T12:26:40;2.60;;;2.40;;
15228;SDS011;7717;47.792;12.076;2022-08-25T12:31:15;3.20;;;3.00;;
15228;SDS011;7717;47.792;12.076;2022-08-25T12:36:10;3.20;;;3.00;;
15228;SDS011;7717;47.792;12.076;2022-08-25T12:38:37;6.18;;;3.13;;
15228;SDS011;7717;47.792;12.076;2022-08-25T12:43:34;3.30;;;3.00;;
15228;SDS011;7717;47.792;12.076;2022-08-25T12:48:55;3.33;;;3.03;;
15228;SDS011;7717;47.792;12.076;2022-08-25T12:51:27;3.63;;;3.33;;
15228;SDS011;7717;47.792;12.076;2022-08-25T12:59:48;4.55;;;3.15;;
15228;SDS011;7717;47.792;12.076;2022-08-25T13:12:43;4.65;;;4.28;;
15228;SDS011;7717;47.792;12.076;2022-08-25T13:15:14;8.30;;;4.88;;
15228;SDS011;7717;47.792;12.076;2022-08-25T13:17:49;5.72;;;4.28;;
15228;SDS011;7717;47.792;12.076;2022-08-25T13:20:25;7.45;;;4.50;;
15228;SDS011;7717;47.792;12.076;2022-08-25T13:22:55;5.35;;;4.63;;
15228;SDS011;7717;47.792;12.076;2022-08-25T13:25:22;5.05;;;4.57;;
15228;SDS011;7717;47.792;12.076;2022-08-25T13:27:56;5.80;;;5.10;;
15228;SDS011;7717;47.792;12.076;2022-08-25T13:30:32;8.18;;;5.05;;
15228;SDS011;7717;47.792;12.076;2022-08-25T13:32:57;5.32;;;4.82;;
15228;SDS011;7717;47.792;12.076;2022-08-25T13:35:24;7.03;;;5.63;;
15228;SDS011;7717;47.792;12.076;2022-08-25T13:38:00;7.13;;;5.57;;
15228;SDS011;7717;47.792;12.076;2022-08-25T13:40:38;6.50;;;5.50;;
15228;SDS011;7717;47.792;12.076;2022-08-25T13:43:09;7.18;;;6.10;;
15228;SDS011;7717;47.792;12.076;2022-08-25T13:45:42;6.57;;;5.30;;
15228;SDS011;7717;47.792;12.076;2022-08-25T13:48:11;6.65;;;5.80;;
15228;SDS011;7717;47.792;12.076;2022-08-25T13:50:41;7.35;;;5.55;;
15228;SDS011;7717;47.792;12.076;2022-08-25T13:53:15;8.68;;;5.95;;
15228;SDS011;7717;47.792;12.076;2022-08-25T13:55:49;6.85;;;5.55;;
15228;SDS011;7717;47.792;12.076;2022-08-25T13:58:22;7.75;;;5.40;;
15228;SDS011;7717;47.792;12.076;2022-08-25T14:06:08;6.97;;;5.57;;
15228;SDS011;7717;47.792;12.076;2022-08-25T14:08:38;8.38;;;5.78;;
15228;SDS011;7717;47.792;12.076;2022-08-25T14:11:29;8.13;;;5.32;;
15228;SDS011;7717;47.792;12.076;2022-08-25T14:17:01;7.82;;;5.93;;
15228;SDS011;7717;47.792;12.076;2022-08-25T14:19:27;7.20;;;4.93;;
15228;SDS011;7717;47.792;12.076;2022-08-25T14:21:55;6.80;;;5.40;;
15228;SDS011;7717;47.792;12.076;2022-08-25T14:24:23;8.45;;;5.07;;
15228;SDS011;7717;47.792;12.076;2022-08-25T14:26:50;11.70;;;6.40;;
15228;SDS011;7717;47.792;12.076;2022-08-25T14:29:16;9.88;;;5.82;;
15228;SDS011;7717;47.792;12.076;2022-08-25T14:31:42;8.85;;;5.53;;
15228;SDS011;7717;47.792;12.076;2022-08-25T14:34:28;9.18;;;5.53;;
15228;SDS011;7717;47.792;12.076;2022-08-25T14:36:54;7.18;;;5.55;;
15228;SDS011;7717;47.792;12.076;2022-08-25T14:39:20;10.63;;;5.80;;
15228;SDS011;7717;47.792;12.076;2022-08-25T14:41:46;9.13;;;5.60;;
15228;SDS011;7717;47.792;12.076;2022-08-25T14:44:13;9.75;;;5.65;;
15228;SDS011;7717;47.792;12.076;2022-08-25T14:46:40;7.18;;;5.15;;
15228;SDS011;7717;47.792;12.076;2022-08-25T14:49:08;6.00;;;4.93;;
15228;SDS011;7717;47.792;12.076;2022-08-25T14:51:35;6.43;;;4.72;;
15228;SDS011;7717;47.792;12.076;2022-08-25T14:54:04;9.48;;;5.35;;
15228;SDS011;7717;47.792;12.076;2022-08-25T14:56:30;7.45;;;5.28;;
15228;SDS011;7717;47.792;12.076;2022-08-25T14:58:55;8.63;;;5.45;;
15228;SDS011;7717;47.792;12.076;2022-08-25T15:01:22;7.45;;;5.13;;
15228;SDS011;7717;47.792;12.076;2022-08-25T15:03:49;7.85;;;5.22;;
15228;SDS011;7717;47.792;12.076;2022-08-25T15:06:16;8.27;;;5.20;;
15228;SDS011;7717;47.792;12.076;2022-08-25T15:08:42;6.70;;;4.90;;
15228;SDS011;7717;47.792;12.076;2022-08-25T15:11:29;7.45;;;5.60;;
15228;SDS011;7717;47.792;12.076;2022-08-25T15:13:55;9.80;;;5.57;;
15228;SDS011;7717;47.792;12.076;2022-08-25T15:16:40;10.20;;;5.10;;
15228;SDS011;7717;47.792;12.076;2022-08-25T15:19:07;12.00;;;6.53;;
15228;SDS011;7717;47.792;12.076;2022-08-25T15:21:34;10.15;;;5.65;;
15228;SDS011;7717;47.792;12.076;2022-08-25T15:24:03;12.30;;;6.07;;
15228;SDS011;7717;47.792;12.076;2022-08-25T15:26:29;7.80;;;6.50;;
15228;SDS011;7717;47.792;12.076;2022-08-25T15:28:55;11.85;;;6.80;;
15228;SDS011;7717;47.792;12.076;2022-08-25T15:31:21;8.27;;;6.82;;
15228;SDS011;7717;47.792;12.076;2022-08-25T15:33:47;8.30;;;6.07;;
15228;SDS011;7717;47.792;12.076;2022-08-25T15:36:13;14.30;;;6.47;;
15228;SDS011;7717;47.792;12.076;2022-08-25T15:38:40;8.27;;;6.80;;
15228;SDS011;7717;47.792;12.076;2022-08-25T15:41:07;10.70;;;5.78;;
15228;SDS011;7717;47.792;12.076;2022-08-25T15:43:33;10.55;;;6.13;;
15228;SDS011;7717;47.792;12.076;2022-08-25T15:45:58;9.90;;;5.82;;
15228;SDS011;7717;47.792;12.076;2022-08-25T15:48:24;7.93;;;6.22;;
15228;SDS011;7717;47.792;12.076;2022-08-25T15:50:53;8.90;;;6.50;;
15228;SDS011;7717;47.792;12.076;2022-08-25T15:53:19;7.18;;;6.18;;
15228;SDS011;7717;47.792;12.076;2022-08-25T15:55:46;9.75;;;5.75;;
15228;SDS011;7717;47.792;12.076;2022-08-25T15:58:12;9.93;;;6.65;;
15228;SDS011;7717;47.792;12.076;2022-08-25T16:00:37;13.23;;;6.65;;
15228;SDS011;7717;47.792;12.076;2022-08-25T16:03:03;12.75;;;7.00;;
15228;SDS011;7717;47.792;12.076;2022-08-25T16:05:38;11.18;;;6.53;;
15228;SDS011;7717;47.792;12.076;2022-08-25T16:08:05;10.00;;;6.18;;
15228;SDS011;7717;47.792;12.076;2022-08-25T16:10:34;10.80;;;7.18;;
15228;SDS011;7717;47.792;12.076;2022-08-25T16:13:00;11.75;;;7.13;;
15228;SDS011;7717;47.792;12.076;2022-08-25T16:15:26;14.82;;;6.90;;
15228;SDS011;7717;47.792;12.076;2022-08-25T16:17:52;12.05;;;6.78;;
15228;SDS011;7717;47.792;12.076;2022-08-25T16:20:17;9.68;;;6.72;;
15228;SDS011;7717;47.792;12.076;2022-08-25T16:22:46;9.10;;;6.75;;
15228;SDS011;7717;47.792;12.076;2022-08-25T16:25:13;10.00;;;7.25;;
15228;SDS011;7717;47.792;12.076;2022-08-25T16:27:38;10.73;;;6.65;;
15228;SDS011;7717;47.792;12.076;2022-08-25T16:30:04;9.10;;;7.32;;
15228;SDS011;7717;47.792;12.076;2022-08-25T16:32:30;12.07;;;6.40;;
15228;SDS011;7717;47.792;12.076;2022-08-25T16:34:56;12.25;;;7.55;;
15228;SDS011;7717;47.792;12.076;2022-08-25T16:37:21;12.70;;;8.73;;